sensor_id;sensor_type;location;lat;lon;timestamp;P1;durP1;ratioP1;P2;durP2;ratioP2
26951;SDS011;14507;52.418;13.398;2023-03-17T00:00:14;14.73;;;3.60;;
26951;SDS011;14507;52.418;13.398;2023-03-17T00:02:42;12.15;;;3.70;;
26951;SDS011;14507;52.418;13.398;2023-03-17T00:05:18;14.10;;;3.70;;
26951;SDS011;14507;52.418;13.398;2023-03-17T00:07:49;13.00;;;4.00;;
26951;SDS011;14507;52.418;13.398;2023-03-17T00:10:23;10.98;;;4.15;;
26951;SDS011;14507;52.418;13.398;2023-03-17T00:12:50;9.02;;;3.83;;
26951;SDS011;14507;52.418;13.398;2023-03-17T00:15:18;10.35;;;4.00;;
26951;SDS011;14507;52.418;13.398;2023-03-17T00:17:45;10.27;;;3.92;;
26951;SDS011;14507;52.418;13.398;2023-03-17T00:20:28;14.05;;;4.18;;
26951;SDS011;14507;52.418;13.398;2023-03-17T00:22:59;9.32;;;4.07;;
26951;SDS011;14507;52.418;13.398;2023-03-17T00:25:31;11.60;;;4.57;;
26951;SDS011;14507;52.418;13.398;2023-03-17T00:27:58;10.18;;;3.97;;
26951;SDS011;14507;52.418;13.398;2023-03-17T00:30:26;10.07;;;4.15;;
26951;SDS011;14507;52.418;13.398;2023-03-17T00:32:53;10.40;;;4.15;;
26951;SDS011;14507;52.418;13.398;2023-03-17T00:35:25;14.10;;;4.45;;
26951;SDS011;14507;52.418;13.398;2023-03-17T00:37:53;9.30;;;4.13;;
26951;SDS011;14507;52.418;13.398;2023-03-17T00:40:24;8.82;;;4.32;;
26951;SDS011;14507;52.418;13.398;2023-03-17T00:42:53;12.50;;;5.05;;
26951;SDS011;14507;52.418;13.398;2023-03-17T00:45:20;17.52;;;4.75;;
26951;SDS011;14507;52.418;13.398;2023-03-17T00:47:48;10.98;;;4.07;;
26951;SDS011;14507;52.418;13.398;2023-03-17T00:50:18;11.15;;;4.78;;
26951;SDS011;14507;52.418;13.398;2023-03-17T00:52:46;11.52;;;4.63;;
26951;SDS011;14507;52.418;13.398;2023-03-17T00:55:13;11.40;;;5.13;;
26951;SDS011;14507;52.418;13.398;2023-03-17T00:57:40;17.70;;;5.05;;
26951;SDS011;14507;52.418;13.398;2023-03-17T01:00:09;9.80;;;4.07;;
26951;SDS011;14507;52.418;13.398;2023-03-17T01:02:43;11.18;;;4.32;;
26951;SDS011;14507;52.418;13.398;2023-03-17T01:05:09;12.85;;;4.70;;
26951;SDS011;14507;52.418;13.398;2023-03-17T01:07:36;16.35;;;4.80;;
26951;SDS011;14507;52.418;13.398;2023-03-17T01:10:03;12.95;;;4.95;;
26951;SDS011;14507;52.418;13.398;2023-03-17T01:12:35;10.82;;;4.65;;
26951;SDS011;14507;52.418;13.398;2023-03-17T01:15:01;13.80;;;4.70;;
26951;SDS011;14507;52.418;13.398;2023-03-17T01:17:26;11.32;;;4.50;;
26951;SDS011;14507;52.418;13.398;2023-03-17T01:19:53;10.32;;;5.20;;
26951;SDS011;14507;52.418;13.398;2023-03-17T01:22:18;10.43;;;5.47;;
26951;SDS011;14507;52.418;13.398;2023-03-17T01:24:44;17.48;;;5.40;;
26951;SDS011;14507;52.418;13.398;2023-03-17T01:27:11;14.55;;;5.25;;
26951;SDS011;14507;52.418;13.398;2023-03-17T01:29:37;15.23;;;5.38;;
26951;SDS011;14507;52.418;13.398;2023-03-17T01:32:03;10.00;;;4.95;;
26951;SDS011;14507;52.418;13.398;2023-03-17T01:34:29;11.93;;;5.28;;
26951;SDS011;14507;52.418;13.398;2023-03-17T01:36:55;14.05;;;5.20;;
26951;SDS011;14507;52.418;13.398;2023-03-17T01:39:21;12.80;;;5.32;;
26951;SDS011;14507;52.418;13.398;2023-03-17T01:41:46;17.00;;;6.13;;
26951;SDS011;14507;52.418;13.398;2023-03-17T01:44:15;11.52;;;5.15;;
26951;SDS011;14507;52.418;13.398;2023-03-17T01:46:42;15.13;;;5.68;;
26951;SDS011;14507;52.418;13.398;2023-03-17T01:54:24;12.40;;;5.82;;
26951;SDS011;14507;52.418;13.398;2023-03-17T01:56:55;18.05;;;5.80;;
26951;SDS011;14507;52.418;13.398;2023-03-17T01:59:25;17.02;;;5.57;;
26951;SDS011;14507;52.418;13.398;2023-03-17T02:01:56;14.80;;;5.95;;
26951;SDS011;14507;52.418;13.398;2023-03-17T02:04:26;13.48;;;5.47;;
26951;SDS011;14507;52.418;13.398;2023-03-17T02:06:53;15.15;;;5.47;;
26951;SDS011;14507;52.418;13.398;2023-03-17T02:09:20;16.87;;;6.47;;
26951;SDS011;14507;52.418;13.398;2023-03-17T02:11:46;11.65;;;6.07;;
26951;SDS011;14507;52.418;13.398;2023-03-17T02:14:13;14.80;;;6.22;;
26951;SDS011;14507;52.418;13.398;2023-03-17T02:16:38;15.18;;;5.60;;
26951;SDS011;14507;52.418;13.398;2023-03-17T02:19:04;14.88;;;6.18;;
26951;SDS011;14507;52.418;13.398;2023-03-17T02:21:40;16.02;;;6.13;;
26951;SDS011;14507;52.418;13.398;2023-03-17T02:24:15;12.93;;;5.78;;
26951;SDS011;14507;52.418;13.398;2023-03-17T02:26:52;12.45;;;6.07;;
26951;SDS011;14507;52.418;13.398;2023-03-17T02:29:21;14.20;;;6.22;;
26951;SDS011;14507;52.418;13.398;2023-03-17T02:31:47;18.52;;;5.70;;
26951;SDS011;14507;52.418;13.398;2023-03-17T02:34:13;21.00;;;6.85;;
26951;SDS011;14507;52.418;13.398;2023-03-17T02:36:39;20.55;;;6.40;;
26951;SDS011;14507;52.418;13.398;2023-03-17T02:39:06;14.43;;;6.18;;
26951;SDS011;14507;52.418;13.398;2023-03-17T02:41:32;14.95;;;6.20;;
26951;SDS011;14507;52.418;13.398;2023-03-17T02:43:58;14.50;;;6.32;;
26951;SDS011;14507;52.418;13.398;2023-03-17T02:46:24;14.80;;;6.95;;
26951;SDS011;14507;52.418;13.398;2023-03-17T02:48:51;16.23;;;6.85;;
26951;SDS011;14507;52.418;13.398;2023-03-17T02:51:16;13.27;;;6.22;;
26951;SDS011;14507;52.418;13.398;2023-03-17T02:53:42;17.13;;;6.40;;
26951;SDS011;14507;52.418;13.398;2023-03-17T02:56:08;14.57;;;6.15;;
26951;SDS011;14507;52.418;13.398;2023-03-17T02:58:34;16.20;;;6.55;;
26951;SDS011;14507;52.418;13.398;2023-03-17T03:01:00;14.70;;;6.30;;
26951;SDS011;14507;52.418;13.398;2023-03-17T03:03:26;15.77;;;6.20;;
26951;SDS011;14507;52.418;13.398;2023-03-17T03:05:52;15.13;;;6.75;;
26951;SDS011;14507;52.418;13.398;2023-03-17T03:08:17;17.50;;;6.25;;
26951;SDS011;14507;52.418;13.398;2023-03-17T03:10:43;18.45;;;7.05;;
26951;SDS011;14507;52.418;13.398;2023-03-17T03:13:10;12.57;;;6.10;;
26951;SDS011;14507;52.418;13.398;2023-03-17T03:15:36;13.00;;;6.03;;
26951;SDS011;14507;52.418;13.398;2023-03-17T03:20:30;16.50;;;6.50;;
26951;SDS011;14507;52.418;13.398;2023-03-17T03:22:56;16.85;;;6.57;;
26951;SDS011;14507;52.418;13.398;2023-03-17T03:25:21;20.90;;;6.70;;
26951;SDS011;14507;52.418;13.398;2023-03-17T03:27:47;17.05;;;6.88;;
26951;SDS011;14507;52.418;13.398;2023-03-17T03:30:13;18.23;;;6.25;;
26951;SDS011;14507;52.418;13.398;2023-03-17T03:32:38;13.63;;;6.78;;
26951;SDS011;14507;52.418;13.398;2023-03-17T03:35:04;14.80;;;6.88;;
26951;SDS011;14507;52.418;13.398;2023-03-17T03:37:30;18.98;;;6.53;;
26951;SDS011;14507;52.418;13.398;2023-03-17T03:39:56;19.40;;;6.50;;
26951;SDS011;14507;52.418;13.398;2023-03-17T03:42:21;15.60;;;6.72;;
26951;SDS011;14507;52.418;13.398;2023-03-17T03:44:47;15.20;;;6.25;;
26951;SDS011;14507;52.418;13.398;2023-03-17T03:47:12;13.35;;;5.88;;
26951;SDS011;14507;52.418;13.398;2023-03-17T03:49:38;14.95;;;6.05;;
26951;SDS011;14507;52.418;13.398;2023-03-17T03:52:04;14.13;;;6.38;;
26951;SDS011;14507;52.418;13.398;2023-03-17T03:54:30;13.98;;;5.93;;
26951;SDS011;14507;52.418;13.398;2023-03-17T03:56:56;21.63;;;6.15;;
26951;SDS011;14507;52.418;13.398;2023-03-17T03:59:21;17.77;;;6.45;;
26951;SDS011;14507;52.418;13.398;2023-03-17T04:01:47;13.23;;;5.80;;
26951;SDS011;14507;52.418;13.398;2023-03-17T04:04:13;17.20;;;6.70;;
26951;SDS011;14507;52.418;13.398;2023-03-17T04:06:38;11.27;;;6.20;;
26951;SDS011;14507;52.418;13.398;2023-03-17T04:09:04;15.63;;;6.50;;
26951;SDS011;14507;52.418;13.398;2023-03-17T04:11:29;13.25;;;5.70;;
26951;SDS011;14507;52.418;13.398;2023-03-17T04:13:55;14.35;;;5.80;;
26951;SDS011;14507;52.418;13.398;2023-03-17T04:16:21;18.88;;;6.45;;
26951;SDS011;14507;52.418;13.398;2023-03-17T04:18:46;19.50;;;6.32;;
26951;SDS011;14507;52.418;13.398;2023-03-17T04:21:12;15.20;;;6.32;;
26951;SDS011;14507;52.418;13.398;2023-03-17T04:23:42;15.00;;;6.40;;
26951;SDS011;14507;52.418;13.398;2023-03-17T04:26:08;15.73;;;5.75;;
26951;SDS011;14507;52.418;13.398;2023-03-17T04:28:35;14.77;;;6.43;;
26951;SDS011;14507;52.418;13.398;2023-03-17T04:31:01;17.85;;;6.55;;
26951;SDS011;14507;52.418;13.398;2023-03-17T04:33:26;15.63;;;6.13;;
26951;SDS011;14507;52.418;13.398;2023-03-17T04:35:52;19.60;;;6.38;;
26951;SDS011;14507;52.418;13.398;2023-03-17T04:38:18;13.30;;;6.28;;
26951;SDS011;14507;52.418;13.398;2023-03-17T04:40:43;13.82;;;5.32;;
26951;SDS011;14507;52.418;13.398;2023-03-17T04:43:09;16.52;;;6.28;;
26951;SDS011;14507;52.418;13.398;2023-03-17T04:45:35;12.52;;;5.65;;
26951;SDS011;14507;52.418;13.398;2023-03-17T04:48:01;13.82;;;5.72;;
26951;SDS011;14507;52.418;13.398;2023-03-17T04:50:27;16.45;;;5.05;;
26951;SDS011;14507;52.418;13.398;2023-03-17T04:52:52;17.63;;;5.60;;
26951;SDS011;14507;52.418;13.398;2023-03-17T04:55:18;15.98;;;5.85;;
26951;SDS011;14507;52.418;13.398;2023-03-17T04:57:44;18.35;;;5.63;;
26951;SDS011;14507;52.418;13.398;2023-03-17T05:00:10;18.48;;;7.07;;
26951;SDS011;14507;52.418;13.398;2023-03-17T05:02:36;12.90;;;6.18;;
26951;SDS011;14507;52.418;13.398;2023-03-17T05:05:03;20.58;;;6.25;;
26951;SDS011;14507;52.418;13.398;2023-03-17T05:07:29;12.95;;;5.75;;
26951;SDS011;14507;52.418;13.398;2023-03-17T05:09:55;14.55;;;5.85;;
26951;SDS011;14507;52.418;13.398;2023-03-17T05:12:21;16.35;;;5.28;;
26951;SDS011;14507;52.418;13.398;2023-03-17T05:14:47;14.27;;;6.22;;
26951;SDS011;14507;52.418;13.398;2023-03-17T05:17:13;14.80;;;5.95;;
26951;SDS011;14507;52.418;13.398;2023-03-17T05:19:38;13.27;;;6.10;;
26951;SDS011;14507;52.418;13.398;2023-03-17T05:22:04;16.50;;;5.90;;
26951;SDS011;14507;52.418;13.398;2023-03-17T05:24:30;12.00;;;5.47;;
26951;SDS011;14507;52.418;13.398;2023-03-17T05:26:56;13.10;;;5.82;;
26951;SDS011;14507;52.418;13.398;2023-03-17T05:29:21;10.35;;;5.18;;
26951;SDS011;14507;52.418;13.398;2023-03-17T05:31:47;20.23;;;5.60;;
26951;SDS011;14507;52.418;13.398;2023-03-17T05:34:13;15.00;;;6.28;;
26951;SDS011;14507;52.418;13.398;2023-03-17T05:36:39;12.80;;;5.80;;
26951;SDS011;14507;52.418;13.398;2023-03-17T05:39:05;14.15;;;5.10;;
26951;SDS011;14507;52.418;13.398;2023-03-17T05:41:31;12.68;;;5.75;;
26951;SDS011;14507;52.418;13.398;2023-03-17T05:43:57;14.60;;;5.78;;
26951;SDS011;14507;52.418;13.398;2023-03-17T05:46:23;11.40;;;5.20;;
26951;SDS011;14507;52.418;13.398;2023-03-17T05:48:49;12.90;;;5.32;;
26951;SDS011;14507;52.418;13.398;2023-03-17T05:51:14;14.07;;;5.00;;
26951;SDS011;14507;52.418;13.398;2023-03-17T05:53:40;11.73;;;5.53;;
26951;SDS011;14507;52.418;13.398;2023-03-17T05:56:06;16.88;;;5.88;;
26951;SDS011;14507;52.418;13.398;2023-03-17T05:58:33;17.70;;;5.45;;
26951;SDS011;14507;52.418;13.398;2023-03-17T06:00:59;11.25;;;5.18;;
26951;SDS011;14507;52.418;13.398;2023-03-17T06:03:25;13.98;;;5.68;;
26951;SDS011;14507;52.418;13.398;2023-03-17T06:05:51;12.27;;;5.55;;
26951;SDS011;14507;52.418;13.398;2023-03-17T06:08:17;14.00;;;4.70;;
26951;SDS011;14507;52.418;13.398;2023-03-17T06:10:42;13.23;;;5.13;;
26951;SDS011;14507;52.418;13.398;2023-03-17T06:13:08;13.40;;;5.32;;
26951;SDS011;14507;52.418;13.398;2023-03-17T06:15:35;14.25;;;5.78;;
26951;SDS011;14507;52.418;13.398;2023-03-17T06:18:01;15.88;;;5.70;;
26951;SDS011;14507;52.418;13.398;2023-03-17T06:22:55;14.15;;;5.38;;
26951;SDS011;14507;52.418;13.398;2023-03-17T06:25:21;16.88;;;5.43;;
26951;SDS011;14507;52.418;13.398;2023-03-17T06:27:46;13.90;;;5.03;;
26951;SDS011;14507;52.418;13.398;2023-03-17T06:30:13;14.40;;;6.05;;
26951;SDS011;14507;52.418;13.398;2023-03-17T06:32:39;15.95;;;5.57;;
26951;SDS011;14507;52.418;13.398;2023-03-17T06:35:04;14.20;;;5.88;;
26951;SDS011;14507;52.418;13.398;2023-03-17T06:37:31;15.27;;;5.38;;
26951;SDS011;14507;52.418;13.398;2023-03-17T06:39:58;13.10;;;5.10;;
26951;SDS011;14507;52.418;13.398;2023-03-17T06:42:24;11.93;;;4.80;;
26951;SDS011;14507;52.418;13.398;2023-03-17T06:44:50;16.48;;;5.28;;
26951;SDS011;14507;52.418;13.398;2023-03-17T06:47:17;14.30;;;6.10;;
26951;SDS011;14507;52.418;13.398;2023-03-17T06:49:43;15.20;;;5.78;;
26951;SDS011;14507;52.418;13.398;2023-03-17T06:52:09;17.15;;;5.97;;
26951;SDS011;14507;52.418;13.398;2023-03-17T06:54:35;12.98;;;4.90;;
26951;SDS011;14507;52.418;13.398;2023-03-17T06:57:01;17.75;;;5.22;;
26951;SDS011;14507;52.418;13.398;2023-03-17T06:59:26;15.32;;;5.10;;
26951;SDS011;14507;52.418;13.398;2023-03-17T07:01:54;11.30;;;5.03;;
26951;SDS011;14507;52.418;13.398;2023-03-17T07:04:20;11.18;;;4.65;;
26951;SDS011;14507;52.418;13.398;2023-03-17T07:06:46;13.40;;;5.03;;
26951;SDS011;14507;52.418;13.398;2023-03-17T07:09:11;12.75;;;4.90;;
26951;SDS011;14507;52.418;13.398;2023-03-17T07:11:37;13.73;;;5.15;;
26951;SDS011;14507;52.418;13.398;2023-03-17T07:14:03;14.60;;;5.50;;
26951;SDS011;14507;52.418;13.398;2023-03-17T07:16:29;13.25;;;5.28;;
26951;SDS011;14507;52.418;13.398;2023-03-17T07:18:56;15.52;;;5.20;;
26951;SDS011;14507;52.418;13.398;2023-03-17T07:21:22;13.85;;;5.35;;
26951;SDS011;14507;52.418;13.398;2023-03-17T07:23:48;18.13;;;5.65;;
26951;SDS011;14507;52.418;13.398;2023-03-17T07:26:13;14.13;;;5.20;;
26951;SDS011;14507;52.418;13.398;2023-03-17T07:28:39;14.23;;;5.22;;
26951;SDS011;14507;52.418;13.398;2023-03-17T07:31:05;12.20;;;4.85;;
26951;SDS011;14507;52.418;13.398;2023-03-17T07:33:33;12.68;;;4.75;;
26951;SDS011;14507;52.418;13.398;2023-03-17T07:35:59;12.38;;;5.00;;
26951;SDS011;14507;52.418;13.398;2023-03-17T07:38:26;17.08;;;5.82;;
26951;SDS011;14507;52.418;13.398;2023-03-17T07:40:51;9.95;;;4.65;;
26951;SDS011;14507;52.418;13.398;2023-03-17T07:43:17;14.60;;;5.07;;
26951;SDS011;14507;52.418;13.398;2023-03-17T07:45:43;13.88;;;4.75;;
26951;SDS011;14507;52.418;13.398;2023-03-17T07:48:10;10.17;;;4.77;;
26951;SDS011;14507;52.418;13.398;2023-03-17T07:50:36;12.85;;;4.85;;
26951;SDS011;14507;52.418;13.398;2023-03-17T07:53:02;11.52;;;4.95;;
26951;SDS011;14507;52.418;13.398;2023-03-17T07:55:29;11.57;;;5.35;;
26951;SDS011;14507;52.418;13.398;2023-03-17T07:57:56;11.10;;;4.85;;
26951;SDS011;14507;52.418;13.398;2023-03-17T08:00:22;8.55;;;4.50;;
26951;SDS011;14507;52.418;13.398;2023-03-17T08:02:48;10.20;;;4.57;;
26951;SDS011;14507;52.418;13.398;2023-03-17T08:05:15;11.37;;;4.93;;
26951;SDS011;14507;52.418;13.398;2023-03-17T08:07:41;13.57;;;5.00;;
26951;SDS011;14507;52.418;13.398;2023-03-17T08:10:07;10.80;;;4.55;;
26951;SDS011;14507;52.418;13.398;2023-03-17T08:12:35;11.48;;;4.55;;
26951;SDS011;14507;52.418;13.398;2023-03-17T08:15:01;10.05;;;4.15;;
26951;SDS011;14507;52.418;13.398;2023-03-17T08:17:27;11.90;;;4.30;;
26951;SDS011;14507;52.418;13.398;2023-03-17T08:19:53;15.70;;;4.65;;
26951;SDS011;14507;52.418;13.398;2023-03-17T08:22:19;10.98;;;4.93;;
26951;SDS011;14507;52.418;13.398;2023-03-17T08:24:44;12.30;;;4.45;;
26951;SDS011;14507;52.418;13.398;2023-03-17T08:27:10;12.30;;;4.32;;
26951;SDS011;14507;52.418;13.398;2023-03-17T08:29:36;14.77;;;4.75;;
26951;SDS011;14507;52.418;13.398;2023-03-17T08:32:03;15.45;;;4.50;;
26951;SDS011;14507;52.418;13.398;2023-03-17T08:34:28;12.20;;;4.95;;
26951;SDS011;14507;52.418;13.398;2023-03-17T08:36:54;12.93;;;4.82;;
26951;SDS011;14507;52.418;13.398;2023-03-17T08:39:20;11.73;;;4.72;;
26951;SDS011;14507;52.418;13.398;2023-03-17T08:41:46;11.40;;;4.35;;
26951;SDS011;14507;52.418;13.398;2023-03-17T08:44:12;10.77;;;4.35;;
26951;SDS011;14507;52.418;13.398;2023-03-17T08:46:38;13.27;;;4.65;;
26951;SDS011;14507;52.418;13.398;2023-03-17T08:49:05;13.07;;;4.78;;
26951;SDS011;14507;52.418;13.398;2023-03-17T08:51:32;14.90;;;4.47;;
26951;SDS011;14507;52.418;13.398;2023-03-17T08:54:00;11.52;;;4.72;;
26951;SDS011;14507;52.418;13.398;2023-03-17T08:56:26;9.85;;;4.20;;
26951;SDS011;14507;52.418;13.398;2023-03-17T08:58:52;11.32;;;4.80;;
26951;SDS011;14507;52.418;13.398;2023-03-17T09:01:18;10.98;;;4.20;;
26951;SDS011;14507;52.418;13.398;2023-03-17T09:03:45;12.32;;;4.97;;
26951;SDS011;14507;52.418;13.398;2023-03-17T09:06:12;9.10;;;4.10;;
26951;SDS011;14507;52.418;13.398;2023-03-17T09:08:39;11.85;;;4.63;;
26951;SDS011;14507;52.418;13.398;2023-03-17T09:11:15;11.20;;;4.30;;
26951;SDS011;14507;52.418;13.398;2023-03-17T09:13:44;12.02;;;4.68;;
26951;SDS011;14507;52.418;13.398;2023-03-17T09:16:11;10.48;;;4.68;;
26951;SDS011;14507;52.418;13.398;2023-03-17T09:18:38;12.48;;;3.92;;
26951;SDS011;14507;52.418;13.398;2023-03-17T09:21:05;14.00;;;3.95;;
26951;SDS011;14507;52.418;13.398;2023-03-17T09:23:31;8.95;;;4.05;;
26951;SDS011;14507;52.418;13.398;2023-03-17T09:25:57;12.73;;;4.82;;
26951;SDS011;14507;52.418;13.398;2023-03-17T09:28:23;11.48;;;3.95;;
26951;SDS011;14507;52.418;13.398;2023-03-17T09:30:49;11.25;;;4.38;;
26951;SDS011;14507;52.418;13.398;2023-03-17T09:33:15;9.52;;;4.40;;
26951;SDS011;14507;52.418;13.398;2023-03-17T09:35:42;12.10;;;4.60;;
26951;SDS011;14507;52.418;13.398;2023-03-17T09:38:08;9.73;;;3.85;;
26951;SDS011;14507;52.418;13.398;2023-03-17T09:40:47;10.30;;;4.30;;
26951;SDS011;14507;52.418;13.398;2023-03-17T09:43:40;12.77;;;4.30;;
26951;SDS011;14507;52.418;13.398;2023-03-17T09:49:11;9.07;;;4.22;;
26951;SDS011;14507;52.418;13.398;2023-03-17T09:51:39;9.88;;;3.92;;
26951;SDS011;14507;52.418;13.398;2023-03-17T09:54:10;6.53;;;3.58;;
26951;SDS011;14507;52.418;13.398;2023-03-17T09:56:40;7.60;;;3.42;;
26951;SDS011;14507;52.418;13.398;2023-03-17T10:02:02;8.43;;;3.67;;
26951;SDS011;14507;52.418;13.398;2023-03-17T10:04:39;9.07;;;3.78;;
26951;SDS011;14507;52.418;13.398;2023-03-17T10:07:08;11.23;;;3.70;;
26951;SDS011;14507;52.418;13.398;2023-03-17T10:09:40;8.38;;;3.70;;
26951;SDS011;14507;52.418;13.398;2023-03-17T10:12:36;9.05;;;3.70;;
26951;SDS011;14507;52.418;13.398;2023-03-17T10:17:43;9.00;;;3.60;;
26951;SDS011;14507;52.418;13.398;2023-03-17T10:20:20;8.70;;;3.17;;
26951;SDS011;14507;52.418;13.398;2023-03-17T10:22:56;8.82;;;3.85;;
26951;SDS011;14507;52.418;13.398;2023-03-17T10:25:33;8.85;;;3.60;;
26951;SDS011;14507;52.418;13.398;2023-03-17T10:28:11;14.87;;;3.97;;
26951;SDS011;14507;52.418;13.398;2023-03-17T10:30:43;10.48;;;4.40;;
26951;SDS011;14507;52.418;13.398;2023-03-17T10:33:09;13.63;;;3.45;;
26951;SDS011;14507;52.418;13.398;2023-03-17T10:35:36;8.48;;;3.72;;
26951;SDS011;14507;52.418;13.398;2023-03-17T10:38:21;9.05;;;3.72;;
26951;SDS011;14507;52.418;13.398;2023-03-17T10:40:58;10.60;;;3.47;;
26951;SDS011;14507;52.418;13.398;2023-03-17T10:43:29;9.98;;;3.45;;
26951;SDS011;14507;52.418;13.398;2023-03-17T10:46:02;7.65;;;3.45;;
26951;SDS011;14507;52.418;13.398;2023-03-17T10:48:30;9.85;;;3.28;;
26951;SDS011;14507;52.418;13.398;2023-03-17T10:51:00;10.40;;;3.78;;
26951;SDS011;14507;52.418;13.398;2023-03-17T10:53:37;8.52;;;3.42;;
26951;SDS011;14507;52.418;13.398;2023-03-17T10:56:08;9.00;;;3.20;;
26951;SDS011;14507;52.418;13.398;2023-03-17T10:58:46;8.25;;;3.40;;
26951;SDS011;14507;52.418;13.398;2023-03-17T11:01:16;7.65;;;3.13;;
26951;SDS011;14507;52.418;13.398;2023-03-17T11:04:00;7.82;;;3.35;;
26951;SDS011;14507;52.418;13.398;2023-03-17T11:06:37;8.23;;;3.30;;
26951;SDS011;14507;52.418;13.398;2023-03-17T11:09:09;10.73;;;3.25;;
26951;SDS011;14507;52.418;13.398;2023-03-17T11:11:42;8.27;;;3.20;;
26951;SDS011;14507;52.418;13.398;2023-03-17T11:16:38;7.63;;;3.33;;
26951;SDS011;14507;52.418;13.398;2023-03-17T11:19:30;7.53;;;3.15;;
26951;SDS011;14507;52.418;13.398;2023-03-17T11:24:48;6.68;;;2.70;;
26951;SDS011;14507;52.418;13.398;2023-03-17T11:35:45;7.80;;;3.42;;
26951;SDS011;14507;52.418;13.398;2023-03-17T11:38:21;7.25;;;3.00;;
26951;SDS011;14507;52.418;13.398;2023-03-17T11:57:10;8.52;;;3.13;;
26951;SDS011;14507;52.418;13.398;2023-03-17T12:00:02;15.18;;;3.33;;
26951;SDS011;14507;52.418;13.398;2023-03-17T12:04:56;6.05;;;2.90;;
26951;SDS011;14507;52.418;13.398;2023-03-17T12:07:28;12.43;;;3.20;;
26951;SDS011;14507;52.418;13.398;2023-03-17T12:12:38;7.70;;;2.85;;
26951;SDS011;14507;52.418;13.398;2023-03-17T12:15:13;8.82;;;2.92;;
26951;SDS011;14507;52.418;13.398;2023-03-17T12:17:56;7.47;;;2.80;;
26951;SDS011;14507;52.418;13.398;2023-03-17T12:20:29;7.80;;;2.80;;
26951;SDS011;14507;52.418;13.398;2023-03-17T12:23:21;9.82;;;3.08;;
26951;SDS011;14507;52.418;13.398;2023-03-17T12:31:30;8.00;;;2.70;;
26951;SDS011;14507;52.418;13.398;2023-03-17T12:36:29;9.73;;;3.10;;
26951;SDS011;14507;52.418;13.398;2023-03-17T12:54:19;10.23;;;2.95;;
26951;SDS011;14507;52.418;13.398;2023-03-17T12:57:05;5.85;;;3.03;;
26951;SDS011;14507;52.418;13.398;2023-03-17T12:59:34;5.38;;;2.28;;
26951;SDS011;14507;52.418;13.398;2023-03-17T13:02:11;5.22;;;2.33;;
26951;SDS011;14507;52.418;13.398;2023-03-17T13:07:14;7.25;;;2.72;;
26951;SDS011;14507;52.418;13.398;2023-03-17T13:10:09;7.50;;;2.83;;
26951;SDS011;14507;52.418;13.398;2023-03-17T13:17:51;6.40;;;2.42;;
26951;SDS011;14507;52.418;13.398;2023-03-17T13:23:40;7.53;;;2.80;;
26951;SDS011;14507;52.418;13.398;2023-03-17T13:26:17;9.32;;;2.53;;
26951;SDS011;14507;52.418;13.398;2023-03-17T13:28:46;6.80;;;2.70;;
26951;SDS011;14507;52.418;13.398;2023-03-17T13:36:41;8.40;;;2.60;;
26951;SDS011;14507;52.418;13.398;2023-03-17T13:44:48;7.18;;;2.75;;
26951;SDS011;14507;52.418;13.398;2023-03-17T13:47:37;12.70;;;2.88;;
26951;SDS011;14507;52.418;13.398;2023-03-17T13:50:16;7.65;;;3.10;;
26951;SDS011;14507;52.418;13.398;2023-03-17T14:00:32;7.95;;;2.70;;
26951;SDS011;14507;52.418;13.398;2023-03-17T14:03:04;6.47;;;2.20;;
26951;SDS011;14507;52.418;13.398;2023-03-17T14:05:31;4.55;;;2.08;;
26951;SDS011;14507;52.418;13.398;2023-03-17T14:08:03;8.57;;;2.63;;
26951;SDS011;14507;52.418;13.398;2023-03-17T14:10:51;5.68;;;2.25;;
26951;SDS011;14507;52.418;13.398;2023-03-17T14:13:28;7.65;;;2.72;;
26951;SDS011;14507;52.418;13.398;2023-03-17T14:18:46;4.15;;;2.00;;
26951;SDS011;14507;52.418;13.398;2023-03-17T14:21:23;6.28;;;2.40;;
26951;SDS011;14507;52.418;13.398;2023-03-17T14:23:58;6.25;;;2.38;;
26951;SDS011;14507;52.418;13.398;2023-03-17T14:26:27;6.05;;;2.05;;
26951;SDS011;14507;52.418;13.398;2023-03-17T14:28:54;6.40;;;2.13;;
26951;SDS011;14507;52.418;13.398;2023-03-17T14:31:24;4.68;;;1.90;;
26951;SDS011;14507;52.418;13.398;2023-03-17T14:33:56;7.32;;;2.28;;
26951;SDS011;14507;52.418;13.398;2023-03-17T14:36:23;9.80;;;2.70;;
26951;SDS011;14507;52.418;13.398;2023-03-17T14:38:51;8.00;;;2.10;;
26951;SDS011;14507;52.418;13.398;2023-03-17T14:41:22;4.63;;;2.00;;
26951;SDS011;14507;52.418;13.398;2023-03-17T14:43:49;8.20;;;2.13;;
26951;SDS011;14507;52.418;13.398;2023-03-17T14:46:20;4.93;;;2.07;;
26951;SDS011;14507;52.418;13.398;2023-03-17T14:48:55;7.90;;;2.60;;
26951;SDS011;14507;52.418;13.398;2023-03-17T14:51:33;7.70;;;2.65;;
26951;SDS011;14507;52.418;13.398;2023-03-17T14:54:47;5.30;;;2.15;;
26951;SDS011;14507;52.418;13.398;2023-03-17T14:57:03;5.80;;;2.42;;
26951;SDS011;14507;52.418;13.398;2023-03-17T14:59:34;6.05;;;2.35;;
26951;SDS011;14507;52.418;13.398;2023-03-17T15:02:13;8.48;;;2.35;;
26951;SDS011;14507;52.418;13.398;2023-03-17T15:05:00;5.90;;;2.08;;
26951;SDS011;14507;52.418;13.398;2023-03-17T15:07:37;8.30;;;2.45;;
26951;SDS011;14507;52.418;13.398;2023-03-17T15:10:05;7.43;;;2.65;;
26951;SDS011;14507;52.418;13.398;2023-03-17T15:12:37;7.22;;;2.60;;
26951;SDS011;14507;52.418;13.398;2023-03-17T15:15:04;7.75;;;2.28;;
26951;SDS011;14507;52.418;13.398;2023-03-17T15:17:41;5.38;;;2.53;;
26951;SDS011;14507;52.418;13.398;2023-03-17T15:20:16;6.43;;;2.40;;
26951;SDS011;14507;52.418;13.398;2023-03-17T15:22:46;8.75;;;2.90;;
26951;SDS011;14507;52.418;13.398;2023-03-17T15:28:01;9.95;;;2.42;;
26951;SDS011;14507;52.418;13.398;2023-03-17T15:30:31;9.77;;;2.78;;
26951;SDS011;14507;52.418;13.398;2023-03-17T15:32:58;5.45;;;2.13;;
26951;SDS011;14507;52.418;13.398;2023-03-17T15:35:26;10.07;;;2.67;;
26951;SDS011;14507;52.418;13.398;2023-03-17T15:37:52;7.43;;;2.30;;
26951;SDS011;14507;52.418;13.398;2023-03-17T15:40:18;5.28;;;2.25;;
26951;SDS011;14507;52.418;13.398;2023-03-17T15:42:44;9.23;;;2.50;;
26951;SDS011;14507;52.418;13.398;2023-03-17T15:45:16;7.57;;;2.47;;
26951;SDS011;14507;52.418;13.398;2023-03-17T15:47:43;5.03;;;2.13;;
26951;SDS011;14507;52.418;13.398;2023-03-17T15:50:21;7.15;;;2.65;;
26951;SDS011;14507;52.418;13.398;2023-03-17T15:52:54;9.70;;;2.83;;
26951;SDS011;14507;52.418;13.398;2023-03-17T15:55:21;11.63;;;2.58;;
26951;SDS011;14507;52.418;13.398;2023-03-17T16:00:17;7.22;;;2.53;;
26951;SDS011;14507;52.418;13.398;2023-03-17T16:02:45;7.80;;;2.70;;
26951;SDS011;14507;52.418;13.398;2023-03-17T16:05:19;6.38;;;2.22;;
26951;SDS011;14507;52.418;13.398;2023-03-17T16:07:47;9.65;;;2.22;;
26951;SDS011;14507;52.418;13.398;2023-03-17T16:10:26;5.13;;;2.30;;
26951;SDS011;14507;52.418;13.398;2023-03-17T16:12:53;6.20;;;2.55;;
26951;SDS011;14507;52.418;13.398;2023-03-17T16:15:26;7.75;;;2.50;;
26951;SDS011;14507;52.418;13.398;2023-03-17T16:17:59;6.95;;;2.60;;
26951;SDS011;14507;52.418;13.398;2023-03-17T16:23:14;7.57;;;2.65;;
26951;SDS011;14507;52.418;13.398;2023-03-17T16:25:42;8.00;;;3.55;;
26951;SDS011;14507;52.418;13.398;2023-03-17T16:28:13;10.93;;;5.25;;
26951;SDS011;14507;52.418;13.398;2023-03-17T16:30:50;7.63;;;2.85;;
26951;SDS011;14507;52.418;13.398;2023-03-17T16:33:18;4.00;;;2.00;;